createdAt,value
2022-11-20T00:02:15.987Z,1.10
2022-11-20T00:04:46.312Z,1.17
2022-11-20T00:07:16.605Z,1.10
2022-11-20T00:09:46.767Z,0.70
2022-11-20T00:12:17.115Z,1.52
2022-11-20T00:14:47.353Z,0.80
2022-11-20T00:17:17.607Z,1.08
2022-11-20T00:19:47.788Z,1.00
2022-11-20T00:22:18.275Z,0.70
2022-11-20T00:24:48.451Z,0.80
2022-11-20T00:27:18.719Z,0.80
2022-11-20T00:29:49.198Z,0.70
2022-11-20T00:32:19.516Z,0.73
2022-11-20T00:34:49.795Z,0.75
2022-11-20T00:37:19.979Z,1.20
2022-11-20T00:39:50.291Z,1.20
2022-11-20T00:42:20.604Z,0.90
2022-11-20T00:44:51.091Z,0.93
2022-11-20T00:47:21.338Z,1.90
2022-11-20T00:49:51.561Z,1.92
2022-11-20T00:52:21.724Z,2.13
2022-11-20T00:54:52.011Z,2.10
2022-11-20T00:57:22.203Z,1.58
2022-11-20T00:59:52.518Z,1.80
2022-11-20T01:02:22.743Z,1.90
2022-11-20T01:04:52.980Z,1.45
2022-11-20T01:07:23.317Z,1.50
2022-11-20T01:09:53.646Z,1.42
2022-11-20T01:12:23.910Z,1.48
2022-11-20T01:14:54.192Z,1.00
2022-11-20T01:17:24.462Z,1.00
2022-11-20T01:19:55.243Z,1.10
2022-11-20T01:22:25.579Z,1.20
2022-11-20T01:24:55.767Z,1.15
2022-11-20T01:27:26.052Z,1.20
2022-11-20T01:30:00.939Z,1.38
2022-11-20T01:32:31.411Z,1.02
2022-11-20T01:35:01.620Z,1.70
2022-11-20T01:37:31.814Z,1.30
2022-11-20T01:40:02.023Z,1.40
2022-11-20T01:42:50.446Z,0.90
2022-11-20T01:45:51.184Z,1.08
2022-11-20T01:48:23.833Z,0.93
2022-11-20T01:50:56.443Z,1.17
2022-11-20T01:53:33.227Z,0.93
2022-11-20T01:56:06.028Z,1.02
2022-11-20T01:58:42.503Z,1.30
2022-11-20T02:01:12.955Z,1.00
2022-11-20T02:03:46.406Z,1.20
2022-11-20T02:06:24.978Z,0.93
2022-11-20T02:08:55.663Z,1.02
2022-11-20T02:11:25.919Z,1.45
2022-11-20T02:13:58.479Z,0.70
2022-11-20T02:16:50.194Z,1.05
2022-11-20T02:19:33.105Z,1.15
2022-11-20T02:22:24.967Z,0.70
2022-11-20T02:24:55.464Z,0.80
2022-11-20T02:27:26.156Z,0.93
2022-11-20T02:30:03.603Z,0.75
2022-11-20T02:32:39.051Z,1.05
2022-11-20T02:35:24.615Z,1.23
2022-11-20T02:37:57.999Z,0.50
2022-11-20T02:40:28.876Z,0.70
2022-11-20T02:42:59.975Z,1.10
2022-11-20T02:45:30.142Z,0.63
2022-11-20T02:48:00.441Z,0.65
2022-11-20T02:50:30.697Z,0.95
2022-11-20T02:53:00.854Z,0.80
2022-11-20T02:55:31.032Z,1.02
2022-11-20T02:58:01.220Z,0.70
2022-11-20T03:00:31.447Z,0.60
2022-11-20T03:03:01.732Z,1.10
2022-11-20T03:05:31.897Z,0.60
2022-11-20T03:08:02.092Z,0.63
2022-11-20T03:10:32.269Z,0.90
2022-11-20T03:13:02.571Z,0.93
2022-11-20T03:15:32.832Z,0.60
2022-11-20T03:18:03.058Z,1.00
2022-11-20T03:20:33.564Z,0.70
2022-11-20T03:23:04.301Z,0.55
2022-11-20T03:25:35.326Z,0.57
2022-11-20T03:28:05.589Z,0.60
2022-11-20T03:30:38.630Z,0.52
2022-11-20T03:33:08.761Z,0.80
2022-11-20T03:35:39.232Z,0.68
2022-11-20T03:38:09.372Z,0.52
2022-11-20T03:40:39.594Z,0.75
2022-11-20T03:43:09.902Z,0.82
2022-11-20T03:45:40.068Z,0.80
2022-11-20T03:48:10.303Z,0.70
2022-11-20T03:50:40.528Z,0.55
2022-11-20T03:53:10.761Z,0.70
2022-11-20T03:55:41.241Z,0.70
2022-11-20T03:58:12.172Z,0.50
2022-11-20T04:00:42.309Z,0.60
2022-11-20T04:03:12.604Z,0.40
2022-11-20T04:05:42.820Z,0.52
2022-11-20T04:08:13.050Z,0.40
2022-11-20T04:10:43.212Z,0.60
2022-11-20T04:13:13.455Z,0.40
2022-11-20T04:15:43.640Z,0.43
2022-11-20T04:18:13.771Z,0.57
2022-11-20T04:20:44.104Z,0.40
2022-11-20T04:23:14.386Z,0.50
2022-11-20T04:25:44.585Z,0.40
2022-11-20T04:28:14.818Z,0.40
2022-11-20T04:30:45.082Z,0.35
2022-11-20T04:33:15.345Z,0.45
2022-11-20T04:35:45.852Z,0.50
2022-11-20T04:38:16.697Z,0.40
2022-11-20T04:40:46.980Z,0.50
2022-11-20T04:43:17.146Z,0.30
2022-11-20T04:45:53.323Z,0.40
2022-11-20T04:48:23.837Z,0.50
2022-11-20T04:50:54.649Z,0.38
2022-11-20T04:53:25.626Z,0.70
2022-11-20T04:56:02.268Z,0.32
2022-11-20T04:58:32.736Z,0.30
2022-11-20T05:01:17.529Z,0.50
2022-11-20T05:03:48.698Z,0.43
2022-11-20T05:06:21.020Z,0.35
2022-11-20T05:08:51.626Z,0.22
2022-11-20T05:11:23.920Z,0.40
2022-11-20T05:13:55.255Z,0.43
2022-11-20T05:16:27.125Z,0.40
2022-11-20T05:18:59.150Z,0.30
2022-11-20T05:21:30.383Z,0.30
2022-11-20T05:24:00.734Z,0.45
2022-11-20T05:26:31.135Z,0.25
2022-11-20T05:29:01.380Z,0.28
2022-11-20T05:31:31.697Z,0.47
2022-11-20T05:34:02.044Z,0.57
2022-11-20T05:36:33.308Z,0.50
2022-11-20T05:39:03.508Z,0.40
2022-11-20T05:41:33.796Z,0.30
2022-11-20T05:44:04.057Z,0.30
2022-11-20T05:46:34.271Z,0.38
2022-11-20T05:49:04.567Z,0.50
2022-11-20T05:51:34.821Z,0.45
2022-11-20T05:54:05.014Z,0.47
2022-11-20T05:56:35.408Z,0.25
2022-11-20T05:59:05.559Z,0.40
2022-11-20T06:01:35.826Z,0.32
2022-11-20T06:04:07.683Z,0.25
2022-11-20T06:06:37.821Z,0.40
2022-11-20T06:09:08.175Z,0.30
2022-11-20T06:11:38.475Z,0.30
2022-11-20T06:14:08.775Z,0.40
2022-11-20T06:16:39.615Z,0.40
2022-11-20T06:19:09.911Z,0.32
2022-11-20T06:21:40.152Z,0.50
2022-11-20T06:24:12.072Z,0.57
2022-11-20T06:26:42.437Z,0.45
2022-11-20T06:29:13.428Z,0.45
2022-11-20T06:31:45.191Z,0.30
2022-11-20T06:34:15.519Z,0.60
2022-11-20T06:36:45.721Z,0.35
2022-11-20T06:39:15.961Z,0.40
2022-11-20T06:41:46.119Z,0.22
2022-11-20T06:44:16.360Z,0.57
2022-11-20T06:46:46.609Z,0.40
2022-11-20T06:49:16.781Z,0.32
2022-11-20T06:51:47.040Z,0.50
2022-11-20T06:54:17.273Z,0.30
2022-11-20T06:56:51.208Z,0.40
2022-11-20T06:59:21.625Z,0.50
2022-11-20T07:01:52.025Z,0.50
2022-11-20T07:04:22.243Z,0.50
2022-11-20T07:07:29.373Z,0.50
2022-11-20T07:10:00.016Z,0.82
2022-11-20T07:12:30.256Z,0.70
2022-11-20T07:15:00.657Z,1.40
2022-11-20T07:17:30.967Z,0.70
2022-11-20T07:20:04.203Z,0.88
2022-11-20T07:22:34.428Z,0.60
2022-11-20T07:25:04.881Z,0.40
2022-11-20T07:27:35.160Z,0.30
2022-11-20T07:30:06.211Z,0.40
2022-11-20T07:32:36.425Z,0.50
2022-11-20T07:35:06.722Z,0.50
2022-11-20T07:37:40.132Z,0.60
2022-11-20T07:40:10.644Z,0.40
2022-11-20T07:42:40.915Z,0.68
2022-11-20T07:45:12.264Z,0.50
2022-11-20T07:47:42.653Z,0.32
2022-11-20T07:50:13.449Z,0.40
2022-11-20T07:52:43.880Z,0.40
2022-11-20T07:55:14.390Z,0.57
2022-11-20T07:57:44.615Z,0.55
2022-11-20T08:00:15.650Z,0.30
2022-11-20T08:02:45.958Z,0.30
2022-11-20T08:05:16.172Z,0.40
2022-11-20T08:07:47.295Z,0.47
2022-11-20T08:10:21.884Z,0.32
2022-11-20T08:13:13.919Z,0.50
2022-11-20T08:15:44.235Z,0.40
2022-11-20T08:18:30.550Z,0.50
2022-11-20T08:21:05.236Z,0.57
2022-11-20T08:23:36.028Z,0.47
2022-11-20T08:26:06.484Z,0.50
2022-11-20T08:28:36.820Z,0.60
2022-11-20T08:31:07.658Z,0.70
2022-11-20T08:33:37.945Z,1.08
2022-11-20T08:36:09.515Z,1.35
2022-11-20T08:38:39.835Z,0.80
2022-11-20T08:41:29.392Z,1.30
2022-11-20T08:44:02.431Z,1.50
2022-11-20T08:46:40.789Z,1.70
2022-11-20T08:49:17.319Z,1.38
2022-11-20T08:51:49.777Z,1.88
2022-11-20T08:54:22.476Z,1.80
2022-11-20T08:56:53.125Z,1.45
2022-11-20T08:59:43.755Z,1.70
2022-11-20T09:02:15.084Z,1.63
2022-11-20T09:04:45.676Z,1.48
2022-11-20T09:07:16.061Z,1.95
2022-11-20T09:09:58.750Z,1.98
2022-11-20T09:12:37.230Z,1.88
2022-11-20T09:15:08.094Z,1.83
2022-11-20T09:17:38.271Z,1.85
2022-11-20T09:20:08.901Z,1.42
2022-11-20T09:22:43.640Z,1.77
2022-11-20T09:25:14.328Z,1.75
2022-11-20T09:27:46.367Z,1.67
2022-11-20T09:30:18.179Z,1.60
2022-11-20T09:32:48.525Z,1.60
2022-11-20T09:35:18.852Z,1.67
2022-11-20T09:37:49.441Z,1.50
2022-11-20T09:40:32.181Z,1.23
2022-11-20T09:43:23.327Z,1.65
2022-11-20T09:46:15.788Z,1.73
2022-11-20T09:48:53.501Z,1.10
2022-11-20T09:51:27.814Z,1.40
2022-11-20T09:54:08.508Z,1.02
2022-11-20T09:56:43.654Z,1.10
2022-11-20T09:59:31.048Z,1.00
2022-11-20T10:02:04.078Z,1.15
2022-11-20T10:04:40.820Z,1.30
2022-11-20T10:07:35.726Z,1.20
2022-11-20T10:10:06.514Z,1.10
2022-11-20T10:12:51.769Z,0.90
2022-11-20T10:15:58.687Z,1.20
2022-11-20T10:19:11.026Z,0.93
2022-11-20T10:22:02.587Z,0.80
2022-11-20T10:25:00.560Z,1.08
2022-11-20T10:28:03.806Z,0.85
2022-11-20T10:30:38.369Z,0.80
2022-11-20T10:33:24.440Z,0.82
2022-11-20T10:36:22.133Z,0.93
2022-11-20T10:39:01.488Z,1.17
2022-11-20T10:41:37.105Z,0.70
2022-11-20T10:44:12.782Z,0.95
2022-11-20T10:46:48.262Z,0.60
2022-11-20T10:49:24.168Z,0.90
2022-11-20T10:52:13.275Z,0.65
2022-11-20T10:54:46.842Z,0.57
2022-11-20T10:57:23.255Z,0.52
2022-11-20T10:59:59.744Z,0.55
2022-11-20T11:02:43.278Z,0.57
2022-11-20T11:05:46.373Z,0.50
2022-11-20T11:08:20.694Z,0.57
2022-11-20T11:11:04.517Z,0.50
2022-11-20T11:13:35.361Z,0.60
2022-11-20T11:16:07.283Z,0.63
2022-11-20T11:18:38.846Z,0.40
2022-11-20T11:21:10.331Z,0.70
2022-11-20T11:23:46.979Z,0.60
2022-11-20T11:26:26.966Z,0.60
2022-11-20T11:29:05.914Z,0.68
2022-11-20T11:31:39.547Z,0.52
2022-11-20T11:34:18.270Z,0.60
2022-11-20T11:37:03.636Z,1.23
2022-11-20T11:39:36.662Z,0.65
2022-11-20T11:42:07.462Z,0.60
2022-11-20T11:44:56.952Z,0.50
2022-11-20T11:47:54.468Z,0.73
2022-11-20T11:50:32.776Z,0.50
2022-11-20T11:53:15.439Z,0.68
2022-11-20T11:56:12.523Z,0.47
2022-11-20T11:58:49.176Z,0.43
2022-11-20T12:01:50.115Z,0.50
2022-11-20T12:04:51.933Z,0.50
2022-11-20T12:07:47.542Z,0.60
2022-11-20T12:10:37.552Z,0.47
2022-11-20T12:13:34.168Z,0.47
2022-11-20T12:16:06.356Z,0.52
2022-11-20T12:18:36.977Z,0.40
2022-11-20T12:21:25.254Z,1.00
2022-11-20T12:24:07.465Z,0.60
2022-11-20T12:26:37.874Z,0.63
2022-11-20T12:29:37.547Z,0.60
2022-11-20T12:32:21.276Z,0.75
2022-11-20T12:34:59.225Z,0.90
2022-11-20T12:37:40.741Z,0.90
2022-11-20T12:40:29.344Z,0.85
2022-11-20T12:43:37.686Z,1.33
2022-11-20T12:46:29.303Z,1.58
2022-11-20T12:49:11.294Z,1.77
2022-11-20T12:51:48.979Z,1.70
2022-11-20T12:54:57.696Z,1.30
2022-11-20T12:57:53.679Z,1.33
2022-11-20T13:00:28.143Z,1.50
2022-11-20T13:03:21.852Z,1.55
2022-11-20T13:06:16.051Z,1.52
2022-11-20T13:09:11.902Z,1.35
2022-11-20T13:12:14.470Z,1.33
2022-11-20T13:14:53.609Z,1.77
2022-11-20T13:17:28.063Z,1.30
2022-11-20T13:20:01.438Z,1.27
2022-11-20T13:22:46.639Z,1.92
2022-11-20T13:25:26.965Z,1.23
2022-11-20T13:27:59.072Z,1.50
2022-11-20T13:30:33.764Z,1.65
2022-11-20T13:33:29.193Z,1.60
2022-11-20T13:36:22.190Z,1.60
2022-11-20T13:38:55.720Z,1.83
2022-11-20T13:41:33.876Z,1.27
2022-11-20T13:44:10.481Z,1.40
2022-11-20T13:46:50.739Z,1.73
2022-11-20T13:49:30.250Z,1.75
2022-11-20T13:52:41.525Z,1.90
2022-11-20T13:55:29.923Z,2.17
2022-11-20T13:58:36.592Z,1.48
2022-11-20T14:01:28.131Z,1.67
2022-11-20T14:04:06.130Z,1.33
2022-11-20T14:06:48.977Z,1.00
2022-11-20T14:09:34.233Z,1.48
2022-11-20T14:12:06.451Z,1.20
2022-11-20T14:14:38.988Z,1.42
2022-11-20T14:17:32.780Z,1.50
2022-11-20T14:20:09.526Z,1.33
2022-11-20T14:22:40.204Z,1.15
2022-11-20T14:25:16.901Z,1.23
2022-11-20T14:27:59.319Z,1.27
2022-11-20T14:30:47.735Z,1.23
2022-11-20T14:33:19.047Z,1.27
2022-11-20T14:35:55.539Z,1.10
2022-11-20T14:38:34.819Z,1.17
2022-11-20T14:41:24.752Z,0.95
2022-11-20T14:44:01.366Z,1.10
2022-11-20T14:46:33.318Z,1.00
2022-11-20T14:49:07.436Z,1.02
2022-11-20T14:51:45.742Z,1.42
2022-11-20T14:54:21.700Z,1.42
2022-11-20T14:57:06.690Z,1.75
2022-11-20T14:59:37.901Z,1.20
2022-11-20T15:02:15.485Z,1.35
2022-11-20T15:05:00.076Z,1.20
2022-11-20T15:07:33.060Z,1.15
2022-11-20T15:10:27.149Z,1.20
2022-11-20T15:13:11.258Z,1.05
2022-11-20T15:15:57.590Z,1.05
2022-11-20T15:18:44.191Z,1.20
2022-11-20T15:21:20.363Z,0.98
2022-11-20T15:23:51.108Z,1.10
2022-11-20T15:26:31.401Z,1.00
2022-11-20T15:29:02.851Z,1.02
2022-11-20T15:31:33.099Z,0.88
2022-11-20T15:34:03.555Z,1.05
2022-11-20T15:36:33.868Z,1.02
2022-11-20T15:39:05.234Z,0.95
2022-11-20T15:41:35.494Z,1.00
2022-11-20T15:44:06.851Z,0.55
2022-11-20T15:46:42.564Z,0.80
2022-11-20T15:49:21.511Z,0.88
2022-11-20T15:51:53.906Z,0.90
2022-11-20T15:54:26.313Z,1.17
2022-11-20T15:56:56.809Z,0.98
2022-11-20T15:59:27.388Z,1.10
2022-11-20T16:01:57.679Z,0.75
2022-11-20T16:04:28.164Z,0.80
2022-11-20T16:06:58.596Z,0.90
2022-11-20T16:09:28.958Z,0.80
2022-11-20T16:12:01.951Z,0.52
2022-11-20T16:14:50.002Z,0.90
2022-11-20T16:17:39.896Z,0.85
2022-11-20T16:20:13.712Z,0.90
2022-11-20T16:22:43.908Z,0.70
2022-11-20T16:25:14.143Z,0.80
2022-11-20T16:27:44.354Z,0.68
2022-11-20T16:30:14.872Z,0.65
2022-11-20T16:32:45.352Z,1.00
2022-11-20T16:35:15.564Z,0.70
2022-11-20T16:37:45.837Z,0.60
2022-11-20T16:40:16.197Z,0.50
2022-11-20T16:42:46.509Z,0.98
2022-11-20T16:45:21.514Z,0.75
2022-11-20T16:47:55.078Z,0.88
2022-11-20T16:50:25.283Z,0.70
2022-11-20T16:52:55.574Z,0.60
2022-11-20T16:55:26.064Z,0.65
2022-11-20T16:57:56.470Z,0.70
2022-11-20T17:00:26.687Z,1.00
2022-11-20T17:02:57.189Z,0.82
2022-11-20T17:05:27.357Z,0.57
2022-11-20T17:07:58.049Z,0.50
2022-11-20T17:10:28.321Z,0.60
2022-11-20T17:12:58.613Z,0.40
2022-11-20T17:15:28.961Z,0.50
2022-11-20T17:17:59.189Z,0.40
2022-11-20T17:20:29.383Z,0.50
2022-11-20T17:23:00.915Z,0.60
2022-11-20T17:25:31.315Z,1.00
2022-11-20T17:28:01.619Z,0.52
2022-11-20T17:30:32.532Z,0.60
2022-11-20T17:33:03.038Z,0.60
2022-11-20T17:35:33.419Z,0.82
2022-11-20T17:38:03.976Z,0.63
2022-11-20T17:40:34.529Z,0.50
2022-11-20T17:43:04.934Z,0.70
2022-11-20T17:45:37.870Z,0.55
2022-11-20T17:48:08.347Z,0.40
2022-11-20T17:50:38.688Z,0.50
2022-11-20T17:53:09.264Z,0.45
2022-11-20T17:55:57.519Z,0.52
2022-11-20T17:58:31.940Z,0.47
2022-11-20T18:01:08.419Z,0.40
2022-11-20T18:03:39.166Z,0.40
2022-11-20T18:06:21.591Z,0.50
2022-11-20T18:08:52.362Z,0.50
2022-11-20T18:11:26.814Z,0.30
2022-11-20T18:14:20.814Z,0.45
2022-11-20T18:16:57.915Z,0.60
2022-11-20T18:19:38.779Z,0.70
2022-11-20T18:22:11.772Z,0.50
2022-11-20T18:24:42.720Z,0.50
2022-11-20T18:27:18.474Z,0.55
2022-11-20T18:29:55.743Z,0.50
2022-11-20T18:32:26.274Z,0.50
2022-11-20T18:34:56.620Z,0.47
2022-11-20T18:37:26.876Z,0.38
2022-11-20T18:39:58.168Z,0.45
2022-11-20T18:42:46.407Z,0.40
2022-11-20T18:45:16.775Z,0.45
2022-11-20T18:47:46.984Z,0.45
2022-11-20T18:50:17.170Z,0.50
2022-11-20T18:52:48.576Z,0.30
2022-11-20T18:55:18.763Z,0.47
2022-11-20T18:57:48.995Z,0.40
2022-11-20T19:00:19.597Z,0.40
2022-11-20T19:02:50.175Z,0.50
2022-11-20T19:05:20.427Z,0.40
2022-11-20T19:07:50.678Z,0.47
2022-11-20T19:10:22.345Z,0.40
2022-11-20T19:12:52.569Z,0.30
2022-11-20T19:15:22.843Z,0.40
2022-11-20T19:17:53.716Z,0.32
2022-11-20T19:20:23.990Z,0.32
2022-11-20T19:22:55.295Z,0.30
2022-11-20T19:25:25.575Z,0.45
2022-11-20T19:27:55.912Z,0.50
2022-11-20T19:30:26.074Z,0.40
2022-11-20T19:32:56.272Z,0.28
2022-11-20T19:35:27.096Z,0.50
2022-11-20T19:38:00.238Z,0.40
2022-11-20T19:40:37.142Z,0.57
2022-11-20T19:43:07.335Z,0.40
2022-11-20T19:45:37.485Z,0.30
2022-11-20T19:48:08.572Z,0.30
2022-11-20T19:50:39.177Z,0.20
2022-11-20T19:53:09.684Z,0.40
2022-11-20T19:55:40.186Z,0.30
2022-11-20T19:58:10.677Z,0.30
2022-11-20T20:00:40.977Z,0.30
2022-11-20T20:03:12.140Z,0.30
2022-11-20T20:05:43.898Z,0.30
2022-11-20T20:08:17.023Z,0.20
2022-11-20T20:10:47.471Z,0.30
2022-11-20T20:13:17.782Z,0.38
2022-11-20T20:15:48.097Z,0.30
2022-11-20T20:18:18.805Z,0.30
2022-11-20T20:20:49.012Z,0.22
2022-11-20T20:23:19.237Z,0.32
2022-11-20T20:25:51.042Z,0.40
2022-11-20T20:28:21.314Z,0.40
2022-11-20T20:30:51.685Z,0.30
2022-11-20T20:33:21.952Z,0.40
2022-11-20T20:35:52.554Z,0.50
2022-11-20T20:38:23.980Z,0.28
2022-11-20T20:40:54.349Z,0.28
2022-11-20T20:43:24.658Z,0.22
2022-11-20T20:45:55.566Z,0.30
2022-11-20T20:48:27.588Z,0.35
2022-11-20T20:50:59.253Z,0.70
2022-11-20T20:53:29.770Z,0.30
2022-11-20T20:56:01.396Z,0.30
2022-11-20T20:58:32.816Z,0.47
2022-11-20T21:01:11.937Z,0.43
2022-11-20T21:03:42.612Z,0.40
2022-11-20T21:06:14.480Z,0.30
2022-11-20T21:08:44.926Z,0.30
2022-11-20T21:11:18.173Z,0.30
2022-11-20T21:13:50.203Z,0.20
2022-11-20T21:16:25.257Z,0.30
2022-11-20T21:18:55.487Z,0.30
2022-11-20T21:21:43.948Z,0.30
2022-11-20T21:24:14.556Z,0.30
2022-11-20T21:26:44.822Z,0.40
2022-11-20T21:29:15.282Z,0.35
2022-11-20T21:31:45.807Z,0.47
2022-11-20T21:34:17.243Z,0.38
2022-11-20T21:36:47.604Z,0.52
2022-11-20T21:39:18.838Z,0.70
2022-11-20T21:41:49.163Z,0.30
2022-11-20T21:44:34.581Z,0.50
2022-11-20T21:47:04.783Z,0.50
2022-11-20T21:49:35.160Z,0.50
2022-11-20T21:52:05.460Z,0.80
2022-11-20T21:54:37.466Z,0.60
2022-11-20T21:57:07.652Z,0.60
2022-11-20T21:59:37.791Z,0.47
2022-11-20T22:02:08.119Z,0.68
2022-11-20T22:04:38.425Z,0.73
2022-11-20T22:07:09.194Z,0.57
2022-11-20T22:09:39.384Z,0.52
2022-11-20T22:12:09.697Z,0.30
2022-11-20T22:14:39.923Z,0.60
2022-11-20T22:17:16.235Z,0.60
2022-11-20T22:19:46.487Z,0.40
2022-11-20T22:22:16.651Z,0.40
2022-11-20T22:24:47.390Z,0.73
2022-11-20T22:27:17.854Z,0.38
2022-11-20T22:29:48.468Z,0.63
2022-11-20T22:32:18.837Z,0.40
2022-11-20T22:34:49.185Z,0.60
2022-11-20T22:37:19.373Z,0.50
2022-11-20T22:39:49.791Z,0.47
2022-11-20T22:42:20.063Z,0.50
2022-11-20T22:44:50.833Z,0.30
2022-11-20T22:47:20.993Z,0.40
2022-11-20T22:49:51.317Z,0.40
2022-11-20T22:52:21.477Z,0.60
2022-11-20T22:54:52.198Z,0.38
2022-11-20T22:57:22.534Z,0.28
2022-11-20T22:59:52.945Z,0.43
2022-11-20T23:02:23.124Z,0.30
2022-11-20T23:04:53.390Z,0.50
2022-11-20T23:07:23.683Z,0.70
2022-11-20T23:09:53.939Z,0.40
2022-11-20T23:12:24.131Z,0.40
2022-11-20T23:14:54.418Z,0.20
2022-11-20T23:17:24.586Z,0.30
2022-11-20T23:19:54.951Z,0.43
2022-11-20T23:22:25.194Z,0.30
2022-11-20T23:24:55.768Z,0.43
2022-11-20T23:27:28.293Z,0.52
2022-11-20T23:30:00.770Z,0.50
2022-11-20T23:32:31.022Z,0.28
2022-11-20T23:35:01.284Z,0.30
2022-11-20T23:37:31.454Z,0.50
2022-11-20T23:40:01.700Z,0.45
2022-11-20T23:42:31.916Z,0.43
2022-11-20T23:45:02.093Z,0.63
2022-11-20T23:47:32.298Z,0.47
2022-11-20T23:50:02.433Z,0.55
2022-11-20T23:52:32.613Z,0.40
2022-11-20T23:55:02.802Z,0.47
2022-11-20T23:57:33.038Z,0.40
